aviador You're here:

SARL Decoded Metar

PASO DE LOS LIBRES in ARGENTINA
Report Time2017-08-21 13:00:00
UTC Time2017-08-21 13:46:57
Flight Rules vfr VFR
Wind050° at 03 kt
W.Decomp.*RWY 36: 1.5 kt HW 2.6 kt RCW
W.Rank050° ranks 4
Current wind is below 050° avg. (7.2)
Visibility9999 m
Phenomena:N/A
Clouds:N/A
Expected CloudBase > 2,400 ft AGL from Temp-Dew spread
CeilingNone
Temp13°C (ISA -2)
Dew Point07°C (67% RH)
AAT11.2°C
QNH1031 hPa
Density Alt-423 ft
Elevation230 ft
Report Wrong Elevation
Raw Report
METAR SARL 211300Z 05003KT CAVOK 13/07 Q1031=

Extra information for SARL:More info

Metar Taf Metar & Taf Last 4 Metars F.Rules Stats Wind Profile Meteogram Temp Stats Airport Information Weather charts Add Link Nearby VenuesMetar ALERT Operation Metar Decoded Social comments